sensor_id;sensor_type;location;lat;lon;timestamp;P1;durP1;ratioP1;P2;durP2;ratioP2
30147;SDS011;16960;49.404;8.248;2023-04-29T00:01:20;0.97;;;0.87;;
30147;SDS011;16960;49.404;8.248;2023-04-29T00:03:47;0.70;;;0.70;;
30147;SDS011;16960;49.404;8.248;2023-04-29T00:06:14;1.10;;;0.87;;
30147;SDS011;16960;49.404;8.248;2023-04-29T00:08:43;0.83;;;0.80;;
30147;SDS011;16960;49.404;8.248;2023-04-29T00:11:10;0.97;;;0.90;;
30147;SDS011;16960;49.404;8.248;2023-04-29T00:13:37;1.03;;;0.70;;
30147;SDS011;16960;49.404;8.248;2023-04-29T00:16:05;1.07;;;0.90;;
30147;SDS011;16960;49.404;8.248;2023-04-29T00:18:34;0.60;;;0.60;;
30147;SDS011;16960;49.404;8.248;2023-04-29T00:21:01;1.77;;;0.80;;
30147;SDS011;16960;49.404;8.248;2023-04-29T00:23:30;0.70;;;0.70;;
30147;SDS011;16960;49.404;8.248;2023-04-29T00:25:58;0.90;;;0.70;;
30147;SDS011;16960;49.404;8.248;2023-04-29T00:28:25;1.17;;;1.07;;
30147;SDS011;16960;49.404;8.248;2023-04-29T00:30:52;1.13;;;0.80;;
30147;SDS011;16960;49.404;8.248;2023-04-29T00:33:20;1.33;;;0.50;;
30147;SDS011;16960;49.404;8.248;2023-04-29T00:35:47;1.03;;;0.80;;
30147;SDS011;16960;49.404;8.248;2023-04-29T00:38:13;0.60;;;0.60;;
30147;SDS011;16960;49.404;8.248;2023-04-29T00:40:41;1.67;;;0.80;;
30147;SDS011;16960;49.404;8.248;2023-04-29T00:43:10;1.23;;;0.90;;
30147;SDS011;16960;49.404;8.248;2023-04-29T00:45:37;0.83;;;0.77;;
30147;SDS011;16960;49.404;8.248;2023-04-29T00:48:04;0.90;;;0.90;;
30147;SDS011;16960;49.404;8.248;2023-04-29T00:50:31;1.00;;;0.90;;
30147;SDS011;16960;49.404;8.248;2023-04-29T00:52:58;1.63;;;0.73;;
30147;SDS011;16960;49.404;8.248;2023-04-29T00:55:26;0.83;;;0.77;;
30147;SDS011;16960;49.404;8.248;2023-04-29T00:57:54;0.80;;;0.80;;
30147;SDS011;16960;49.404;8.248;2023-04-29T01:00:23;0.57;;;0.57;;
30147;SDS011;16960;49.404;8.248;2023-04-29T01:02:51;1.30;;;0.90;;
30147;SDS011;16960;49.404;8.248;2023-04-29T01:05:20;0.70;;;0.70;;
30147;SDS011;16960;49.404;8.248;2023-04-29T01:07:49;1.00;;;0.90;;
30147;SDS011;16960;49.404;8.248;2023-04-29T01:10:25;0.87;;;0.77;;
30147;SDS011;16960;49.404;8.248;2023-04-29T01:12:57;2.33;;;0.90;;
30147;SDS011;16960;49.404;8.248;2023-04-29T01:15:33;0.93;;;0.57;;
30147;SDS011;16960;49.404;8.248;2023-04-29T01:18:08;0.53;;;0.47;;
30147;SDS011;16960;49.404;8.248;2023-04-29T01:20:37;1.10;;;1.00;;
30147;SDS011;16960;49.404;8.248;2023-04-29T01:23:06;0.90;;;0.80;;
30147;SDS011;16960;49.404;8.248;2023-04-29T01:25:34;1.33;;;0.70;;
30147;SDS011;16960;49.404;8.248;2023-04-29T01:28:04;0.50;;;0.50;;
30147;SDS011;16960;49.404;8.248;2023-04-29T01:30:40;1.30;;;1.00;;
30147;SDS011;16960;49.404;8.248;2023-04-29T01:33:13;1.20;;;1.00;;
30147;SDS011;16960;49.404;8.248;2023-04-29T01:35:49;1.30;;;1.00;;
30147;SDS011;16960;49.404;8.248;2023-04-29T01:38:22;0.50;;;0.40;;
30147;SDS011;16960;49.404;8.248;2023-04-29T01:41:02;0.70;;;0.60;;
30147;SDS011;16960;49.404;8.248;2023-04-29T01:43:36;0.60;;;0.60;;
30147;SDS011;16960;49.404;8.248;2023-04-29T01:46:03;0.70;;;0.70;;
30147;SDS011;16960;49.404;8.248;2023-04-29T01:48:31;0.70;;;0.70;;
30147;SDS011;16960;49.404;8.248;2023-04-29T01:50:58;0.83;;;0.73;;
30147;SDS011;16960;49.404;8.248;2023-04-29T01:53:26;0.80;;;0.77;;
30147;SDS011;16960;49.404;8.248;2023-04-29T01:55:53;0.73;;;0.70;;
30147;SDS011;16960;49.404;8.248;2023-04-29T01:58:21;0.70;;;0.70;;
30147;SDS011;16960;49.404;8.248;2023-04-29T02:00:48;0.97;;;0.87;;
30147;SDS011;16960;49.404;8.248;2023-04-29T02:03:15;1.03;;;0.93;;
30147;SDS011;16960;49.404;8.248;2023-04-29T02:05:42;1.00;;;0.63;;
30147;SDS011;16960;49.404;8.248;2023-04-29T02:08:09;0.80;;;0.80;;
30147;SDS011;16960;49.404;8.248;2023-04-29T02:10:36;0.93;;;0.67;;
30147;SDS011;16960;49.404;8.248;2023-04-29T02:13:02;1.00;;;0.80;;
30147;SDS011;16960;49.404;8.248;2023-04-29T02:15:31;1.03;;;0.87;;
30147;SDS011;16960;49.404;8.248;2023-04-29T02:17:58;0.80;;;0.70;;
30147;SDS011;16960;49.404;8.248;2023-04-29T02:20:24;1.03;;;0.90;;
30147;SDS011;16960;49.404;8.248;2023-04-29T02:22:51;0.63;;;0.63;;
30147;SDS011;16960;49.404;8.248;2023-04-29T02:25:18;1.00;;;0.70;;
30147;SDS011;16960;49.404;8.248;2023-04-29T02:27:45;1.30;;;0.77;;
30147;SDS011;16960;49.404;8.248;2023-04-29T02:30:12;2.40;;;1.53;;
30147;SDS011;16960;49.404;8.248;2023-04-29T02:32:40;1.47;;;0.73;;
30147;SDS011;16960;49.404;8.248;2023-04-29T02:35:08;0.83;;;0.57;;
30147;SDS011;16960;49.404;8.248;2023-04-29T02:37:35;0.77;;;0.77;;
30147;SDS011;16960;49.404;8.248;2023-04-29T02:40:02;0.70;;;0.70;;
30147;SDS011;16960;49.404;8.248;2023-04-29T02:42:30;2.00;;;0.77;;
30147;SDS011;16960;49.404;8.248;2023-04-29T02:44:57;1.00;;;0.70;;
30147;SDS011;16960;49.404;8.248;2023-04-29T02:47:23;0.77;;;0.67;;
30147;SDS011;16960;49.404;8.248;2023-04-29T02:49:52;0.70;;;0.60;;
30147;SDS011;16960;49.404;8.248;2023-04-29T02:52:19;0.70;;;0.60;;
30147;SDS011;16960;49.404;8.248;2023-04-29T02:54:46;0.70;;;0.70;;
30147;SDS011;16960;49.404;8.248;2023-04-29T02:57:12;1.00;;;0.90;;
30147;SDS011;16960;49.404;8.248;2023-04-29T02:59:39;0.80;;;0.80;;
30147;SDS011;16960;49.404;8.248;2023-04-29T03:02:06;0.70;;;0.60;;
30147;SDS011;16960;49.404;8.248;2023-04-29T03:04:34;0.87;;;0.73;;
30147;SDS011;16960;49.404;8.248;2023-04-29T03:07:02;0.80;;;0.80;;
30147;SDS011;16960;49.404;8.248;2023-04-29T03:09:29;0.80;;;0.80;;
30147;SDS011;16960;49.404;8.248;2023-04-29T03:11:56;1.00;;;0.67;;
30147;SDS011;16960;49.404;8.248;2023-04-29T03:14:23;0.93;;;0.70;;
30147;SDS011;16960;49.404;8.248;2023-04-29T03:16:50;0.70;;;0.70;;
30147;SDS011;16960;49.404;8.248;2023-04-29T03:19:17;2.37;;;1.00;;
30147;SDS011;16960;49.404;8.248;2023-04-29T03:21:44;0.77;;;0.77;;
30147;SDS011;16960;49.404;8.248;2023-04-29T03:24:12;0.80;;;0.60;;
30147;SDS011;16960;49.404;8.248;2023-04-29T03:26:40;0.60;;;0.60;;
30147;SDS011;16960;49.404;8.248;2023-04-29T03:29:07;0.60;;;0.50;;
30147;SDS011;16960;49.404;8.248;2023-04-29T03:31:34;1.60;;;0.60;;
30147;SDS011;16960;49.404;8.248;2023-04-29T03:34:01;0.50;;;0.50;;
30147;SDS011;16960;49.404;8.248;2023-04-29T03:36:28;0.60;;;0.60;;
30147;SDS011;16960;49.404;8.248;2023-04-29T03:38:55;0.70;;;0.67;;
30147;SDS011;16960;49.404;8.248;2023-04-29T03:41:23;0.80;;;0.80;;
30147;SDS011;16960;49.404;8.248;2023-04-29T03:43:50;1.43;;;0.53;;
30147;SDS011;16960;49.404;8.248;2023-04-29T03:46:18;0.93;;;0.70;;
30147;SDS011;16960;49.404;8.248;2023-04-29T03:48:45;0.90;;;0.80;;
30147;SDS011;16960;49.404;8.248;2023-04-29T03:51:12;0.63;;;0.60;;
30147;SDS011;16960;49.404;8.248;2023-04-29T03:53:39;0.60;;;0.60;;
30147;SDS011;16960;49.404;8.248;2023-04-29T03:56:06;0.70;;;0.70;;
30147;SDS011;16960;49.404;8.248;2023-04-29T03:58:35;1.00;;;0.50;;
30147;SDS011;16960;49.404;8.248;2023-04-29T04:01:01;1.00;;;0.90;;
30147;SDS011;16960;49.404;8.248;2023-04-29T04:03:28;0.97;;;0.83;;
30147;SDS011;16960;49.404;8.248;2023-04-29T04:05:56;0.77;;;0.77;;
30147;SDS011;16960;49.404;8.248;2023-04-29T04:08:23;0.70;;;0.70;;
30147;SDS011;16960;49.404;8.248;2023-04-29T04:10:50;0.70;;;0.60;;
30147;SDS011;16960;49.404;8.248;2023-04-29T04:13:17;0.53;;;0.50;;
30147;SDS011;16960;49.404;8.248;2023-04-29T04:15:49;0.67;;;0.67;;
30147;SDS011;16960;49.404;8.248;2023-04-29T04:18:16;0.70;;;0.70;;
30147;SDS011;16960;49.404;8.248;2023-04-29T04:20:43;0.63;;;0.60;;
30147;SDS011;16960;49.404;8.248;2023-04-29T04:23:10;0.60;;;0.60;;
30147;SDS011;16960;49.404;8.248;2023-04-29T04:25:37;1.00;;;0.87;;
30147;SDS011;16960;49.404;8.248;2023-04-29T04:28:04;0.50;;;0.47;;
30147;SDS011;16960;49.404;8.248;2023-04-29T04:30:31;0.90;;;0.90;;
30147;SDS011;16960;49.404;8.248;2023-04-29T04:33:02;1.07;;;0.60;;
30147;SDS011;16960;49.404;8.248;2023-04-29T04:35:29;0.83;;;0.77;;
30147;SDS011;16960;49.404;8.248;2023-04-29T04:37:56;0.70;;;0.53;;
30147;SDS011;16960;49.404;8.248;2023-04-29T04:40:23;1.03;;;0.90;;
30147;SDS011;16960;49.404;8.248;2023-04-29T04:42:51;0.70;;;0.50;;
30147;SDS011;16960;49.404;8.248;2023-04-29T04:45:18;0.53;;;0.50;;
30147;SDS011;16960;49.404;8.248;2023-04-29T04:47:46;0.57;;;0.47;;
30147;SDS011;16960;49.404;8.248;2023-04-29T04:50:14;0.60;;;0.57;;
30147;SDS011;16960;49.404;8.248;2023-04-29T04:52:41;1.00;;;0.90;;
30147;SDS011;16960;49.404;8.248;2023-04-29T04:55:08;0.83;;;0.70;;
30147;SDS011;16960;49.404;8.248;2023-04-29T04:57:36;0.77;;;0.70;;
30147;SDS011;16960;49.404;8.248;2023-04-29T05:00:03;0.50;;;0.50;;
30147;SDS011;16960;49.404;8.248;2023-04-29T05:02:31;0.60;;;0.53;;
30147;SDS011;16960;49.404;8.248;2023-04-29T05:04:58;0.60;;;0.60;;
30147;SDS011;16960;49.404;8.248;2023-04-29T05:07:26;0.57;;;0.57;;
30147;SDS011;16960;49.404;8.248;2023-04-29T05:09:53;0.60;;;0.50;;
30147;SDS011;16960;49.404;8.248;2023-04-29T05:12:20;0.63;;;0.60;;
30147;SDS011;16960;49.404;8.248;2023-04-29T05:14:51;1.53;;;0.90;;
30147;SDS011;16960;49.404;8.248;2023-04-29T05:17:18;0.63;;;0.63;;
30147;SDS011;16960;49.404;8.248;2023-04-29T05:19:45;0.47;;;0.40;;
30147;SDS011;16960;49.404;8.248;2023-04-29T05:22:12;0.70;;;0.50;;
30147;SDS011;16960;49.404;8.248;2023-04-29T05:24:40;0.70;;;0.60;;
30147;SDS011;16960;49.404;8.248;2023-04-29T05:27:07;0.50;;;0.50;;
30147;SDS011;16960;49.404;8.248;2023-04-29T05:29:34;0.70;;;0.50;;
30147;SDS011;16960;49.404;8.248;2023-04-29T05:32:01;0.60;;;0.57;;
30147;SDS011;16960;49.404;8.248;2023-04-29T05:34:28;0.50;;;0.47;;
30147;SDS011;16960;49.404;8.248;2023-04-29T05:36:55;0.53;;;0.50;;
30147;SDS011;16960;49.404;8.248;2023-04-29T05:39:22;0.70;;;0.70;;
30147;SDS011;16960;49.404;8.248;2023-04-29T05:41:52;0.47;;;0.47;;
30147;SDS011;16960;49.404;8.248;2023-04-29T05:44:19;0.60;;;0.60;;
30147;SDS011;16960;49.404;8.248;2023-04-29T05:46:45;0.67;;;0.63;;
30147;SDS011;16960;49.404;8.248;2023-04-29T05:49:13;0.60;;;0.40;;
30147;SDS011;16960;49.404;8.248;2023-04-29T05:51:40;0.50;;;0.50;;
30147;SDS011;16960;49.404;8.248;2023-04-29T05:54:07;0.70;;;0.67;;
30147;SDS011;16960;49.404;8.248;2023-04-29T05:56:34;0.67;;;0.40;;
30147;SDS011;16960;49.404;8.248;2023-04-29T05:59:02;1.27;;;0.80;;
30147;SDS011;16960;49.404;8.248;2023-04-29T06:01:29;0.47;;;0.43;;
30147;SDS011;16960;49.404;8.248;2023-04-29T06:03:57;0.50;;;0.50;;
30147;SDS011;16960;49.404;8.248;2023-04-29T06:06:23;0.60;;;0.53;;
30147;SDS011;16960;49.404;8.248;2023-04-29T06:08:50;0.70;;;0.70;;
30147;SDS011;16960;49.404;8.248;2023-04-29T06:11:18;0.40;;;0.40;;
30147;SDS011;16960;49.404;8.248;2023-04-29T06:13:45;0.60;;;0.60;;
30147;SDS011;16960;49.404;8.248;2023-04-29T06:16:13;0.60;;;0.60;;
30147;SDS011;16960;49.404;8.248;2023-04-29T06:18:40;0.50;;;0.40;;
30147;SDS011;16960;49.404;8.248;2023-04-29T06:21:07;0.80;;;0.70;;
30147;SDS011;16960;49.404;8.248;2023-04-29T06:23:34;0.70;;;0.60;;
30147;SDS011;16960;49.404;8.248;2023-04-29T06:26:00;0.50;;;0.40;;
30147;SDS011;16960;49.404;8.248;2023-04-29T06:28:27;0.50;;;0.50;;
30147;SDS011;16960;49.404;8.248;2023-04-29T06:30:55;0.73;;;0.70;;
30147;SDS011;16960;49.404;8.248;2023-04-29T06:33:23;0.63;;;0.60;;
30147;SDS011;16960;49.404;8.248;2023-04-29T06:35:50;0.70;;;0.60;;
30147;SDS011;16960;49.404;8.248;2023-04-29T06:38:17;0.50;;;0.50;;
30147;SDS011;16960;49.404;8.248;2023-04-29T06:40:44;0.50;;;0.40;;
30147;SDS011;16960;49.404;8.248;2023-04-29T06:43:11;0.70;;;0.60;;
30147;SDS011;16960;49.404;8.248;2023-04-29T06:45:38;3.43;;;0.60;;
30147;SDS011;16960;49.404;8.248;2023-04-29T06:48:05;0.70;;;0.70;;
30147;SDS011;16960;49.404;8.248;2023-04-29T06:50:33;0.70;;;0.60;;
30147;SDS011;16960;49.404;8.248;2023-04-29T06:53:00;1.13;;;0.77;;
30147;SDS011;16960;49.404;8.248;2023-04-29T06:55:27;0.70;;;0.70;;
30147;SDS011;16960;49.404;8.248;2023-04-29T06:57:54;1.00;;;0.50;;
30147;SDS011;16960;49.404;8.248;2023-04-29T07:00:21;0.93;;;0.53;;
30147;SDS011;16960;49.404;8.248;2023-04-29T07:02:48;3.50;;;0.80;;
30147;SDS011;16960;49.404;8.248;2023-04-29T07:05:15;0.80;;;0.60;;
30147;SDS011;16960;49.404;8.248;2023-04-29T07:07:45;0.40;;;0.40;;
30147;SDS011;16960;49.404;8.248;2023-04-29T07:10:11;0.80;;;0.50;;
30147;SDS011;16960;49.404;8.248;2023-04-29T07:12:38;0.93;;;0.80;;
30147;SDS011;16960;49.404;8.248;2023-04-29T07:15:06;0.50;;;0.50;;
30147;SDS011;16960;49.404;8.248;2023-04-29T07:17:33;0.90;;;0.70;;
30147;SDS011;16960;49.404;8.248;2023-04-29T07:20:00;3.47;;;0.50;;
30147;SDS011;16960;49.404;8.248;2023-04-29T07:22:28;0.70;;;0.70;;
30147;SDS011;16960;49.404;8.248;2023-04-29T07:24:56;0.90;;;0.60;;
30147;SDS011;16960;49.404;8.248;2023-04-29T07:27:23;0.60;;;0.53;;
30147;SDS011;16960;49.404;8.248;2023-04-29T07:29:50;1.10;;;0.80;;
30147;SDS011;16960;49.404;8.248;2023-04-29T07:32:17;4.77;;;1.40;;
30147;SDS011;16960;49.404;8.248;2023-04-29T07:34:44;2.10;;;1.00;;
30147;SDS011;16960;49.404;8.248;2023-04-29T07:37:11;1.00;;;0.90;;
30147;SDS011;16960;49.404;8.248;2023-04-29T07:39:38;3.13;;;1.17;;
30147;SDS011;16960;49.404;8.248;2023-04-29T07:42:08;2.67;;;1.30;;
30147;SDS011;16960;49.404;8.248;2023-04-29T07:44:35;1.63;;;1.10;;
30147;SDS011;16960;49.404;8.248;2023-04-29T07:47:01;1.57;;;1.20;;
30147;SDS011;16960;49.404;8.248;2023-04-29T07:49:28;2.70;;;1.43;;
30147;SDS011;16960;49.404;8.248;2023-04-29T07:51:55;3.10;;;1.10;;
30147;SDS011;16960;49.404;8.248;2023-04-29T07:54:22;4.10;;;0.97;;
30147;SDS011;16960;49.404;8.248;2023-04-29T07:56:49;1.47;;;1.20;;
30147;SDS011;16960;49.404;8.248;2023-04-29T07:59:17;1.17;;;1.07;;
30147;SDS011;16960;49.404;8.248;2023-04-29T08:01:44;2.43;;;1.77;;
30147;SDS011;16960;49.404;8.248;2023-04-29T08:04:11;3.33;;;1.33;;
30147;SDS011;16960;49.404;8.248;2023-04-29T08:06:38;1.30;;;1.20;;
30147;SDS011;16960;49.404;8.248;2023-04-29T08:09:05;2.20;;;1.23;;
30147;SDS011;16960;49.404;8.248;2023-04-29T08:11:32;3.73;;;1.40;;
30147;SDS011;16960;49.404;8.248;2023-04-29T08:13:59;2.67;;;1.53;;
30147;SDS011;16960;49.404;8.248;2023-04-29T08:16:28;1.50;;;1.30;;
30147;SDS011;16960;49.404;8.248;2023-04-29T08:18:55;2.03;;;1.83;;
30147;SDS011;16960;49.404;8.248;2023-04-29T08:21:22;2.03;;;1.73;;
30147;SDS011;16960;49.404;8.248;2023-04-29T08:23:49;2.47;;;1.87;;
30147;SDS011;16960;49.404;8.248;2023-04-29T08:26:17;1.87;;;1.77;;
30147;SDS011;16960;49.404;8.248;2023-04-29T08:28:45;2.30;;;1.63;;
30147;SDS011;16960;49.404;8.248;2023-04-29T08:31:15;2.00;;;1.90;;
30147;SDS011;16960;49.404;8.248;2023-04-29T08:33:44;4.10;;;2.00;;
30147;SDS011;16960;49.404;8.248;2023-04-29T08:36:11;3.53;;;1.60;;
30147;SDS011;16960;49.404;8.248;2023-04-29T08:38:38;2.40;;;2.20;;
30147;SDS011;16960;49.404;8.248;2023-04-29T08:41:06;5.53;;;2.27;;
30147;SDS011;16960;49.404;8.248;2023-04-29T08:43:34;6.90;;;1.73;;
30147;SDS011;16960;49.404;8.248;2023-04-29T08:46:02;10.07;;;2.07;;
30147;SDS011;16960;49.404;8.248;2023-04-29T08:48:29;4.83;;;1.90;;
30147;SDS011;16960;49.404;8.248;2023-04-29T08:50:57;7.80;;;2.20;;
30147;SDS011;16960;49.404;8.248;2023-04-29T08:53:26;4.77;;;2.03;;
30147;SDS011;16960;49.404;8.248;2023-04-29T08:55:53;2.53;;;2.33;;
30147;SDS011;16960;49.404;8.248;2023-04-29T08:58:20;4.03;;;2.60;;
30147;SDS011;16960;49.404;8.248;2023-04-29T09:00:48;4.00;;;2.07;;
30147;SDS011;16960;49.404;8.248;2023-04-29T09:03:16;3.73;;;1.93;;
30147;SDS011;16960;49.404;8.248;2023-04-29T09:05:48;2.53;;;2.03;;
30147;SDS011;16960;49.404;8.248;2023-04-29T09:08:20;2.70;;;1.60;;
30147;SDS011;16960;49.404;8.248;2023-04-29T09:10:48;3.20;;;2.00;;
30147;SDS011;16960;49.404;8.248;2023-04-29T09:13:22;3.63;;;2.43;;
30147;SDS011;16960;49.404;8.248;2023-04-29T09:15:50;1.93;;;1.50;;
30147;SDS011;16960;49.404;8.248;2023-04-29T09:21:15;2.40;;;1.83;;
30147;SDS011;16960;49.404;8.248;2023-04-29T09:23:44;1.50;;;1.40;;
30147;SDS011;16960;49.404;8.248;2023-04-29T09:26:11;2.90;;;1.40;;
30147;SDS011;16960;49.404;8.248;2023-04-29T09:28:38;1.70;;;1.60;;
30147;SDS011;16960;49.404;8.248;2023-04-29T09:31:08;2.60;;;2.00;;
30147;SDS011;16960;49.404;8.248;2023-04-29T09:33:48;1.63;;;1.50;;
30147;SDS011;16960;49.404;8.248;2023-04-29T09:39:03;1.90;;;1.70;;
30147;SDS011;16960;49.404;8.248;2023-04-29T09:41:35;2.00;;;1.80;;
30147;SDS011;16960;49.404;8.248;2023-04-29T09:44:04;2.10;;;1.63;;
30147;SDS011;16960;49.404;8.248;2023-04-29T09:46:32;4.40;;;1.80;;
30147;SDS011;16960;49.404;8.248;2023-04-29T09:49:01;3.23;;;1.70;;
30147;SDS011;16960;49.404;8.248;2023-04-29T09:51:28;1.87;;;1.73;;
30147;SDS011;16960;49.404;8.248;2023-04-29T09:53:57;1.73;;;1.60;;
30147;SDS011;16960;49.404;8.248;2023-04-29T09:56:26;1.87;;;1.70;;
30147;SDS011;16960;49.404;8.248;2023-04-29T09:58:55;2.00;;;1.87;;
30147;SDS011;16960;49.404;8.248;2023-04-29T10:01:23;2.43;;;2.10;;
30147;SDS011;16960;49.404;8.248;2023-04-29T10:03:53;2.17;;;1.60;;
30147;SDS011;16960;49.404;8.248;2023-04-29T10:06:21;3.23;;;2.00;;
30147;SDS011;16960;49.404;8.248;2023-04-29T10:08:50;3.70;;;2.00;;
30147;SDS011;16960;49.404;8.248;2023-04-29T10:11:17;2.03;;;1.83;;
30147;SDS011;16960;49.404;8.248;2023-04-29T10:13:46;2.07;;;1.87;;
30147;SDS011;16960;49.404;8.248;2023-04-29T10:16:20;1.70;;;1.60;;
30147;SDS011;16960;49.404;8.248;2023-04-29T10:18:53;2.13;;;1.93;;
30147;SDS011;16960;49.404;8.248;2023-04-29T10:21:24;1.93;;;1.80;;
30147;SDS011;16960;49.404;8.248;2023-04-29T10:23:53;2.03;;;1.83;;
30147;SDS011;16960;49.404;8.248;2023-04-29T10:26:22;1.97;;;1.70;;
30147;SDS011;16960;49.404;8.248;2023-04-29T10:28:53;2.97;;;2.20;;
30147;SDS011;16960;49.404;8.248;2023-04-29T10:31:21;1.83;;;1.73;;
30147;SDS011;16960;49.404;8.248;2023-04-29T10:33:53;2.07;;;1.90;;
30147;SDS011;16960;49.404;8.248;2023-04-29T10:36:22;1.90;;;1.80;;
30147;SDS011;16960;49.404;8.248;2023-04-29T10:38:52;2.83;;;2.33;;
30147;SDS011;16960;49.404;8.248;2023-04-29T10:41:22;2.70;;;2.50;;
30147;SDS011;16960;49.404;8.248;2023-04-29T10:43:54;4.30;;;2.20;;
30147;SDS011;16960;49.404;8.248;2023-04-29T10:46:21;2.50;;;2.30;;
30147;SDS011;16960;49.404;8.248;2023-04-29T10:48:55;2.03;;;1.90;;
30147;SDS011;16960;49.404;8.248;2023-04-29T10:51:29;2.80;;;2.10;;
30147;SDS011;16960;49.404;8.248;2023-04-29T10:54:00;2.27;;;2.07;;
30147;SDS011;16960;49.404;8.248;2023-04-29T10:56:38;2.13;;;1.90;;
30147;SDS011;16960;49.404;8.248;2023-04-29T10:59:11;2.40;;;2.20;;
30147;SDS011;16960;49.404;8.248;2023-04-29T11:01:44;3.90;;;2.63;;
30147;SDS011;16960;49.404;8.248;2023-04-29T11:04:12;4.60;;;2.00;;
30147;SDS011;16960;49.404;8.248;2023-04-29T11:06:40;2.33;;;2.13;;
30147;SDS011;16960;49.404;8.248;2023-04-29T11:09:11;2.53;;;2.33;;
30147;SDS011;16960;49.404;8.248;2023-04-29T11:11:43;2.40;;;2.20;;
30147;SDS011;16960;49.404;8.248;2023-04-29T11:14:13;2.53;;;2.33;;
30147;SDS011;16960;49.404;8.248;2023-04-29T11:16:50;2.40;;;2.20;;
30147;SDS011;16960;49.404;8.248;2023-04-29T11:19:18;2.43;;;2.23;;
30147;SDS011;16960;49.404;8.248;2023-04-29T11:21:45;3.30;;;3.00;;
30147;SDS011;16960;49.404;8.248;2023-04-29T11:24:13;2.50;;;2.20;;
30147;SDS011;16960;49.404;8.248;2023-04-29T11:26:41;4.37;;;2.30;;
30147;SDS011;16960;49.404;8.248;2023-04-29T11:29:10;2.77;;;2.50;;
30147;SDS011;16960;49.404;8.248;2023-04-29T11:31:38;2.40;;;2.20;;
30147;SDS011;16960;49.404;8.248;2023-04-29T11:34:06;2.77;;;2.40;;
30147;SDS011;16960;49.404;8.248;2023-04-29T11:36:33;4.07;;;2.70;;
30147;SDS011;16960;49.404;8.248;2023-04-29T11:39:01;3.33;;;3.03;;
30147;SDS011;16960;49.404;8.248;2023-04-29T11:41:29;2.20;;;2.00;;
30147;SDS011;16960;49.404;8.248;2023-04-29T11:43:57;2.50;;;2.30;;
30147;SDS011;16960;49.404;8.248;2023-04-29T11:46:25;2.80;;;2.60;;
30147;SDS011;16960;49.404;8.248;2023-04-29T11:48:57;2.53;;;2.20;;
30147;SDS011;16960;49.404;8.248;2023-04-29T11:51:25;2.93;;;2.63;;
30147;SDS011;16960;49.404;8.248;2023-04-29T11:53:52;2.13;;;2.00;;
30147;SDS011;16960;49.404;8.248;2023-04-29T11:56:23;3.23;;;2.93;;
30147;SDS011;16960;49.404;8.248;2023-04-29T11:58:52;2.60;;;2.40;;
30147;SDS011;16960;49.404;8.248;2023-04-29T12:01:20;2.87;;;2.67;;
30147;SDS011;16960;49.404;8.248;2023-04-29T12:03:47;3.97;;;2.80;;
30147;SDS011;16960;49.404;8.248;2023-04-29T12:06:16;3.17;;;2.50;;
30147;SDS011;16960;49.404;8.248;2023-04-29T12:08:45;3.03;;;2.77;;
30147;SDS011;16960;49.404;8.248;2023-04-29T12:11:12;2.90;;;2.13;;
30147;SDS011;16960;49.404;8.248;2023-04-29T12:13:39;3.60;;;2.30;;
30147;SDS011;16960;49.404;8.248;2023-04-29T12:16:07;2.30;;;2.10;;
30147;SDS011;16960;49.404;8.248;2023-04-29T12:18:34;3.30;;;2.77;;
30147;SDS011;16960;49.404;8.248;2023-04-29T12:21:03;3.33;;;2.57;;
30147;SDS011;16960;49.404;8.248;2023-04-29T12:23:32;2.67;;;2.47;;
30147;SDS011;16960;49.404;8.248;2023-04-29T12:26:01;2.70;;;2.50;;
30147;SDS011;16960;49.404;8.248;2023-04-29T12:28:29;2.77;;;2.57;;
30147;SDS011;16960;49.404;8.248;2023-04-29T12:30:57;3.07;;;2.87;;
30147;SDS011;16960;49.404;8.248;2023-04-29T12:33:26;2.70;;;2.50;;
30147;SDS011;16960;49.404;8.248;2023-04-29T12:35:54;2.83;;;2.63;;
30147;SDS011;16960;49.404;8.248;2023-04-29T12:38:23;3.33;;;2.60;;
30147;SDS011;16960;49.404;8.248;2023-04-29T12:40:53;3.07;;;2.87;;
30147;SDS011;16960;49.404;8.248;2023-04-29T12:43:24;3.43;;;3.17;;
30147;SDS011;16960;49.404;8.248;2023-04-29T12:45:53;2.77;;;2.57;;
30147;SDS011;16960;49.404;8.248;2023-04-29T12:48:21;5.27;;;2.37;;
30147;SDS011;16960;49.404;8.248;2023-04-29T12:50:55;2.30;;;2.10;;
30147;SDS011;16960;49.404;8.248;2023-04-29T12:53:24;2.17;;;2.07;;
30147;SDS011;16960;49.404;8.248;2023-04-29T12:55:52;2.50;;;2.30;;
30147;SDS011;16960;49.404;8.248;2023-04-29T12:58:19;1.90;;;1.80;;
30147;SDS011;16960;49.404;8.248;2023-04-29T13:00:46;3.50;;;3.20;;
30147;SDS011;16960;49.404;8.248;2023-04-29T13:03:13;2.70;;;2.50;;
30147;SDS011;16960;49.404;8.248;2023-04-29T13:05:40;2.87;;;2.67;;
30147;SDS011;16960;49.404;8.248;2023-04-29T13:08:07;3.07;;;2.77;;
30147;SDS011;16960;49.404;8.248;2023-04-29T13:10:34;2.77;;;2.57;;
30147;SDS011;16960;49.404;8.248;2023-04-29T13:13:03;3.20;;;2.90;;
30147;SDS011;16960;49.404;8.248;2023-04-29T13:15:30;2.83;;;2.63;;
30147;SDS011;16960;49.404;8.248;2023-04-29T13:17:58;3.00;;;2.80;;
30147;SDS011;16960;49.404;8.248;2023-04-29T13:20:25;2.77;;;2.47;;
30147;SDS011;16960;49.404;8.248;2023-04-29T13:22:52;3.13;;;2.43;;
30147;SDS011;16960;49.404;8.248;2023-04-29T13:25:19;3.30;;;2.73;;
30147;SDS011;16960;49.404;8.248;2023-04-29T13:27:46;3.00;;;2.80;;
30147;SDS011;16960;49.404;8.248;2023-04-29T13:30:15;2.77;;;2.53;;
30147;SDS011;16960;49.404;8.248;2023-04-29T13:32:42;3.10;;;2.80;;
30147;SDS011;16960;49.404;8.248;2023-04-29T13:35:09;2.70;;;2.50;;
30147;SDS011;16960;49.404;8.248;2023-04-29T13:37:36;2.70;;;2.50;;
30147;SDS011;16960;49.404;8.248;2023-04-29T13:40:03;2.60;;;2.40;;
30147;SDS011;16960;49.404;8.248;2023-04-29T13:42:31;3.37;;;3.10;;
30147;SDS011;16960;49.404;8.248;2023-04-29T13:44:58;2.70;;;2.50;;
30147;SDS011;16960;49.404;8.248;2023-04-29T13:47:26;2.80;;;2.50;;
30147;SDS011;16960;49.404;8.248;2023-04-29T13:49:53;2.53;;;2.33;;
30147;SDS011;16960;49.404;8.248;2023-04-29T13:52:21;3.23;;;2.93;;
30147;SDS011;16960;49.404;8.248;2023-04-29T13:54:48;2.93;;;2.63;;
30147;SDS011;16960;49.404;8.248;2023-04-29T13:57:15;2.60;;;2.40;;
30147;SDS011;16960;49.404;8.248;2023-04-29T13:59:42;2.43;;;2.23;;
30147;SDS011;16960;49.404;8.248;2023-04-29T14:02:09;3.30;;;3.00;;
30147;SDS011;16960;49.404;8.248;2023-04-29T14:04:39;2.73;;;2.53;;
30147;SDS011;16960;49.404;8.248;2023-04-29T14:07:06;2.67;;;2.47;;
30147;SDS011;16960;49.404;8.248;2023-04-29T14:09:33;3.10;;;2.80;;
30147;SDS011;16960;49.404;8.248;2023-04-29T14:12:00;3.30;;;2.70;;
30147;SDS011;16960;49.404;8.248;2023-04-29T14:14:27;2.70;;;2.50;;
30147;SDS011;16960;49.404;8.248;2023-04-29T14:16:53;3.03;;;2.83;;
30147;SDS011;16960;49.404;8.248;2023-04-29T14:19:20;2.43;;;2.23;;
30147;SDS011;16960;49.404;8.248;2023-04-29T14:21:49;2.80;;;2.60;;
30147;SDS011;16960;49.404;8.248;2023-04-29T14:24:16;2.50;;;2.30;;
30147;SDS011;16960;49.404;8.248;2023-04-29T14:26:43;3.93;;;3.20;;
30147;SDS011;16960;49.404;8.248;2023-04-29T14:29:10;2.80;;;2.60;;
30147;SDS011;16960;49.404;8.248;2023-04-29T14:31:36;2.60;;;2.40;;
30147;SDS011;16960;49.404;8.248;2023-04-29T14:34:03;2.50;;;2.27;;
30147;SDS011;16960;49.404;8.248;2023-04-29T14:36:31;2.20;;;2.00;;
30147;SDS011;16960;49.404;8.248;2023-04-29T14:38:59;2.83;;;2.60;;
30147;SDS011;16960;49.404;8.248;2023-04-29T14:41:27;2.47;;;2.27;;
30147;SDS011;16960;49.404;8.248;2023-04-29T14:43:54;3.40;;;3.10;;
30147;SDS011;16960;49.404;8.248;2023-04-29T14:46:21;2.70;;;2.50;;
30147;SDS011;16960;49.404;8.248;2023-04-29T14:48:49;4.33;;;2.13;;
30147;SDS011;16960;49.404;8.248;2023-04-29T14:51:16;4.17;;;2.53;;
30147;SDS011;16960;49.404;8.248;2023-04-29T14:53:43;2.53;;;2.33;;
30147;SDS011;16960;49.404;8.248;2023-04-29T14:56:11;3.60;;;2.40;;
30147;SDS011;16960;49.404;8.248;2023-04-29T14:58:38;2.77;;;2.57;;